sensor_id;sensor_type;location;lat;lon;timestamp;pressure;altitude;pressure_sealevel;temperature;humidity
64211;BME280;50528;48.514;14.394;2023-08-06T00:00:15;93057.33;;;14.34;89.58
64211;BME280;50528;48.514;14.394;2023-08-06T00:01:10;93056.13;;;14.32;89.63
64211;BME280;50528;48.514;14.394;2023-08-06T00:01:53;93057.95;;;14.31;89.78
64211;BME280;50528;48.514;14.394;2023-08-06T00:02:27;93060.30;;;14.31;89.85
64211;BME280;50528;48.514;14.394;2023-08-06T00:03:01;93061.09;;;14.33;89.91
64211;BME280;50528;48.514;14.394;2023-08-06T00:03:34;93058.80;;;14.33;90.02
64211;BME280;50528;48.514;14.394;2023-08-06T00:04:08;93058.31;;;14.35;89.98
64211;BME280;50528;48.514;14.394;2023-08-06T00:04:42;93059.00;;;14.35;90.10
64211;BME280;50528;48.514;14.394;2023-08-06T00:05:16;93057.14;;;14.36;90.00
64211;BME280;50528;48.514;14.394;2023-08-06T00:05:54;93054.70;;;14.37;90.01
64211;BME280;50528;48.514;14.394;2023-08-06T00:06:27;93055.64;;;14.39;90.00
64211;BME280;50528;48.514;14.394;2023-08-06T00:07:01;93059.80;;;14.39;90.08
64211;BME280;50528;48.514;14.394;2023-08-06T00:07:34;93059.32;;;14.40;89.96
64211;BME280;50528;48.514;14.394;2023-08-06T00:08:08;93058.68;;;14.41;89.89
64211;BME280;50528;48.514;14.394;2023-08-06T00:08:41;93058.65;;;14.43;90.00
64211;BME280;50528;48.514;14.394;2023-08-06T00:09:14;93058.52;;;14.47;89.68
64211;BME280;50528;48.514;14.394;2023-08-06T00:09:48;93056.09;;;14.44;89.77
64211;BME280;50528;48.514;14.394;2023-08-06T00:10:22;93059.15;;;14.44;89.79
64211;BME280;50528;48.514;14.394;2023-08-06T00:10:56;93060.08;;;14.52;89.21
64211;BME280;50528;48.514;14.394;2023-08-06T00:11:29;93058.64;;;14.46;89.32
64211;BME280;50528;48.514;14.394;2023-08-06T00:12:03;93060.41;;;14.44;89.53
64211;BME280;50528;48.514;14.394;2023-08-06T00:12:37;93056.48;;;14.44;89.45
64211;BME280;50528;48.514;14.394;2023-08-06T00:13:14;93056.83;;;14.44;89.58
64211;BME280;50528;48.514;14.394;2023-08-06T00:13:50;93057.85;;;14.43;89.55
64211;BME280;50528;48.514;14.394;2023-08-06T00:14:27;93056.92;;;14.43;89.59
64211;BME280;50528;48.514;14.394;2023-08-06T00:15:00;93056.05;;;14.46;89.29
64211;BME280;50528;48.514;14.394;2023-08-06T00:15:34;93059.38;;;14.43;89.38
64211;BME280;50528;48.514;14.394;2023-08-06T00:16:13;93058.46;;;14.42;89.37
64211;BME280;50528;48.514;14.394;2023-08-06T00:16:47;93054.91;;;14.42;89.42
64211;BME280;50528;48.514;14.394;2023-08-06T00:17:20;93059.98;;;14.42;89.53
64211;BME280;50528;48.514;14.394;2023-08-06T00:17:54;93055.23;;;14.42;89.24
64211;BME280;50528;48.514;14.394;2023-08-06T00:18:27;93059.61;;;14.42;89.39
64211;BME280;50528;48.514;14.394;2023-08-06T00:19:01;93057.79;;;14.41;89.26
64211;BME280;50528;48.514;14.394;2023-08-06T00:19:35;93058.70;;;14.40;89.25
64211;BME280;50528;48.514;14.394;2023-08-06T00:20:09;93058.79;;;14.41;89.38
64211;BME280;50528;48.514;14.394;2023-08-06T00:20:43;93056.73;;;14.40;89.32
64211;BME280;50528;48.514;14.394;2023-08-06T00:21:16;93056.52;;;14.40;89.35
64211;BME280;50528;48.514;14.394;2023-08-06T00:21:49;93055.70;;;14.41;89.08
64211;BME280;50528;48.514;14.394;2023-08-06T00:22:23;93057.42;;;14.40;89.30
64211;BME280;50528;48.514;14.394;2023-08-06T00:22:57;93055.73;;;14.40;89.14
64211;BME280;50528;48.514;14.394;2023-08-06T00:23:30;93051.36;;;14.38;89.24
64211;BME280;50528;48.514;14.394;2023-08-06T00:24:04;93051.71;;;14.43;89.17
64211;BME280;50528;48.514;14.394;2023-08-06T00:24:37;93052.94;;;14.39;89.19
64211;BME280;50528;48.514;14.394;2023-08-06T00:25:10;93046.70;;;14.39;89.39
64211;BME280;50528;48.514;14.394;2023-08-06T00:25:44;93051.65;;;14.39;89.42
64211;BME280;50528;48.514;14.394;2023-08-06T00:26:17;93048.64;;;14.36;89.41
64211;BME280;50528;48.514;14.394;2023-08-06T00:26:51;93054.42;;;14.39;89.59
64211;BME280;50528;48.514;14.394;2023-08-06T00:27:24;93053.20;;;14.45;89.18
64211;BME280;50528;48.514;14.394;2023-08-06T00:27:58;93052.17;;;14.41;89.25
64211;BME280;50528;48.514;14.394;2023-08-06T00:28:31;93053.27;;;14.37;89.27
64211;BME280;50528;48.514;14.394;2023-08-06T00:29:05;93051.83;;;14.34;89.41
64211;BME280;50528;48.514;14.394;2023-08-06T00:29:38;93051.88;;;14.34;89.67
64211;BME280;50528;48.514;14.394;2023-08-06T00:30:12;93055.95;;;14.34;89.66
64211;BME280;50528;48.514;14.394;2023-08-06T00:30:45;93053.39;;;14.36;89.72
64211;BME280;50528;48.514;14.394;2023-08-06T00:31:18;93051.92;;;14.39;89.42
64211;BME280;50528;48.514;14.394;2023-08-06T00:31:52;93049.67;;;14.38;89.62
64211;BME280;50528;48.514;14.394;2023-08-06T00:32:26;93049.42;;;14.36;89.52
64211;BME280;50528;48.514;14.394;2023-08-06T00:32:59;93049.14;;;14.43;89.43
64211;BME280;50528;48.514;14.394;2023-08-06T00:33:33;93045.13;;;14.38;89.32
64211;BME280;50528;48.514;14.394;2023-08-06T00:34:06;93046.55;;;14.33;89.55
64211;BME280;50528;48.514;14.394;2023-08-06T00:34:40;93043.45;;;14.32;89.72
64211;BME280;50528;48.514;14.394;2023-08-06T00:35:14;93045.45;;;14.32;89.79
64211;BME280;50528;48.514;14.394;2023-08-06T00:35:47;93045.52;;;14.31;90.02
64211;BME280;50528;48.514;14.394;2023-08-06T00:36:21;93043.42;;;14.34;90.09
64211;BME280;50528;48.514;14.394;2023-08-06T00:36:54;93042.90;;;14.33;90.05
64211;BME280;50528;48.514;14.394;2023-08-06T00:37:28;93041.91;;;14.33;90.11
64211;BME280;50528;48.514;14.394;2023-08-06T00:38:02;93038.89;;;14.33;90.24
64211;BME280;50528;48.514;14.394;2023-08-06T00:38:35;93042.30;;;14.34;90.28
64211;BME280;50528;48.514;14.394;2023-08-06T00:39:09;93045.46;;;14.35;90.26
64211;BME280;50528;48.514;14.394;2023-08-06T00:39:43;93041.80;;;14.36;90.35
64211;BME280;50528;48.514;14.394;2023-08-06T00:40:20;93044.29;;;14.37;90.37
64211;BME280;50528;48.514;14.394;2023-08-06T00:40:53;93041.86;;;14.37;90.35
64211;BME280;50528;48.514;14.394;2023-08-06T00:41:27;93040.89;;;14.39;90.34
64211;BME280;50528;48.514;14.394;2023-08-06T00:42:00;93040.91;;;14.40;90.33
64211;BME280;50528;48.514;14.394;2023-08-06T00:42:34;93040.64;;;14.41;90.38
64211;BME280;50528;48.514;14.394;2023-08-06T00:43:08;93037.73;;;14.42;90.22
64211;BME280;50528;48.514;14.394;2023-08-06T00:43:41;93037.27;;;14.41;90.33
64211;BME280;50528;48.514;14.394;2023-08-06T00:44:14;93038.81;;;14.43;90.32
64211;BME280;50528;48.514;14.394;2023-08-06T00:44:48;93036.44;;;14.46;89.90
64211;BME280;50528;48.514;14.394;2023-08-06T00:45:22;93036.75;;;14.43;89.74
64211;BME280;50528;48.514;14.394;2023-08-06T00:45:57;93038.70;;;14.40;90.02
64211;BME280;50528;48.514;14.394;2023-08-06T00:46:31;93038.91;;;14.40;90.08
64211;BME280;50528;48.514;14.394;2023-08-06T00:47:08;93037.81;;;14.39;90.08
64211;BME280;50528;48.514;14.394;2023-08-06T00:47:43;93036.89;;;14.37;90.10
64211;BME280;50528;48.514;14.394;2023-08-06T00:48:17;93039.86;;;14.36;90.21
64211;BME280;50528;48.514;14.394;2023-08-06T00:48:50;93038.67;;;14.38;90.09
64211;BME280;50528;48.514;14.394;2023-08-06T00:49:24;93037.93;;;14.38;90.15
64211;BME280;50528;48.514;14.394;2023-08-06T00:49:57;93038.82;;;14.39;89.97
64211;BME280;50528;48.514;14.394;2023-08-06T00:50:32;93039.33;;;14.36;89.84
64211;BME280;50528;48.514;14.394;2023-08-06T00:51:06;93041.05;;;14.38;89.86
64211;BME280;50528;48.514;14.394;2023-08-06T00:51:39;93038.28;;;14.35;89.94
64211;BME280;50528;48.514;14.394;2023-08-06T00:52:13;93025.84;;;14.30;89.75
64211;BME280;50528;48.514;14.394;2023-08-06T00:52:47;93035.55;;;14.34;89.84
64211;BME280;50528;48.514;14.394;2023-08-06T00:53:21;93038.41;;;14.32;90.01
64211;BME280;50528;48.514;14.394;2023-08-06T00:53:55;93035.35;;;14.37;89.72
64211;BME280;50528;48.514;14.394;2023-08-06T00:54:30;93035.67;;;14.32;89.96
64211;BME280;50528;48.514;14.394;2023-08-06T00:55:05;93032.31;;;14.31;90.08
64211;BME280;50528;48.514;14.394;2023-08-06T00:55:39;93032.80;;;14.31;90.17
64211;BME280;50528;48.514;14.394;2023-08-06T00:56:13;93033.33;;;14.30;90.25
64211;BME280;50528;48.514;14.394;2023-08-06T00:56:47;93033.45;;;14.32;90.26
64211;BME280;50528;48.514;14.394;2023-08-06T00:57:24;93029.80;;;14.32;90.25
64211;BME280;50528;48.514;14.394;2023-08-06T00:57:58;93032.96;;;14.32;90.31
64211;BME280;50528;48.514;14.394;2023-08-06T00:58:31;93028.07;;;14.36;90.22
64211;BME280;50528;48.514;14.394;2023-08-06T00:59:05;93027.61;;;14.39;89.78
64211;BME280;50528;48.514;14.394;2023-08-06T00:59:39;93029.38;;;14.37;89.95
64211;BME280;50528;48.514;14.394;2023-08-06T01:00:13;93025.45;;;14.33;90.05
64211;BME280;50528;48.514;14.394;2023-08-06T01:00:47;93028.72;;;14.35;89.93
64211;BME280;50528;48.514;14.394;2023-08-06T01:01:20;93029.08;;;14.35;89.84
64211;BME280;50528;48.514;14.394;2023-08-06T01:01:54;93022.63;;;14.35;89.72
64211;BME280;50528;48.514;14.394;2023-08-06T01:02:28;93026.40;;;14.31;89.87
64211;BME280;50528;48.514;14.394;2023-08-06T01:03:01;93025.86;;;14.35;89.80
64211;BME280;50528;48.514;14.394;2023-08-06T01:03:36;93026.35;;;14.30;89.86
64211;BME280;50528;48.514;14.394;2023-08-06T01:04:10;93023.14;;;14.29;90.14
64211;BME280;50528;48.514;14.394;2023-08-06T01:04:45;93022.31;;;14.28;90.04
64211;BME280;50528;48.514;14.394;2023-08-06T01:05:20;93024.59;;;14.28;90.30
64211;BME280;50528;48.514;14.394;2023-08-06T01:05:54;93018.87;;;14.25;90.16
64211;BME280;50528;48.514;14.394;2023-08-06T01:06:39;93020.41;;;14.28;90.24
64211;BME280;50528;48.514;14.394;2023-08-06T01:08:58;93024.40;;;14.20;90.41
64211;BME280;50528;48.514;14.394;2023-08-06T01:10:27;93019.17;;;14.20;90.63
64211;BME280;50528;48.514;14.394;2023-08-06T01:12:43;93015.17;;;14.15;90.84
64211;BME280;50528;48.514;14.394;2023-08-06T01:13:39;93014.39;;;14.11;91.20
64211;BME280;50528;48.514;14.394;2023-08-06T01:14:18;93011.63;;;14.12;90.90
64211;BME280;50528;48.514;14.394;2023-08-06T01:15:10;93012.71;;;14.10;91.07
64211;BME280;50528;48.514;14.394;2023-08-06T01:15:50;93009.11;;;14.08;91.25
64211;BME280;50528;48.514;14.394;2023-08-06T01:16:28;93011.03;;;14.07;91.43
64211;BME280;50528;48.514;14.394;2023-08-06T01:17:04;93012.95;;;14.08;91.41
64211;BME280;50528;48.514;14.394;2023-08-06T01:17:38;93011.65;;;14.10;91.71
64211;BME280;50528;48.514;14.394;2023-08-06T01:18:13;93013.08;;;14.11;91.38
64211;BME280;50528;48.514;14.394;2023-08-06T01:18:48;93009.67;;;14.12;91.54
64211;BME280;50528;48.514;14.394;2023-08-06T01:19:23;93012.67;;;14.13;91.58
64211;BME280;50528;48.514;14.394;2023-08-06T01:19:56;93011.95;;;14.13;91.52
64211;BME280;50528;48.514;14.394;2023-08-06T01:20:31;93012.21;;;14.15;91.64
64211;BME280;50528;48.514;14.394;2023-08-06T01:21:05;93009.56;;;14.16;91.61
64211;BME280;50528;48.514;14.394;2023-08-06T01:21:39;93011.37;;;14.14;91.51
64211;BME280;50528;48.514;14.394;2023-08-06T01:22:12;93011.83;;;14.16;91.56
64211;BME280;50528;48.514;14.394;2023-08-06T01:22:45;93012.50;;;14.18;91.55
64211;BME280;50528;48.514;14.394;2023-08-06T01:23:19;93009.86;;;14.18;91.56
64211;BME280;50528;48.514;14.394;2023-08-06T01:23:53;93008.20;;;14.19;91.47
64211;BME280;50528;48.514;14.394;2023-08-06T01:24:26;93008.52;;;14.18;91.59
64211;BME280;50528;48.514;14.394;2023-08-06T01:25:00;93006.15;;;14.18;91.62
64211;BME280;50528;48.514;14.394;2023-08-06T01:25:39;93005.55;;;14.19;91.65
64211;BME280;50528;48.514;14.394;2023-08-06T01:26:35;92998.67;;;14.15;91.58
64211;BME280;50528;48.514;14.394;2023-08-06T01:27:50;93003.61;;;14.21;91.68
64211;BME280;50528;48.514;14.394;2023-08-06T01:28:33;93003.16;;;14.20;91.73
64211;BME280;50528;48.514;14.394;2023-08-06T01:29:33;93005.48;;;14.20;91.78
64211;BME280;50528;48.514;14.394;2023-08-06T01:30:25;93002.65;;;14.21;91.84
64211;BME280;50528;48.514;14.394;2023-08-06T01:31:02;93001.44;;;14.19;91.65
64211;BME280;50528;48.514;14.394;2023-08-06T01:31:42;93004.34;;;14.19;91.69
64211;BME280;50528;48.514;14.394;2023-08-06T01:32:17;93002.13;;;14.19;91.73
64211;BME280;50528;48.514;14.394;2023-08-06T01:32:58;93001.80;;;14.21;91.56
64211;BME280;50528;48.514;14.394;2023-08-06T01:33:34;92999.82;;;14.17;91.76
64211;BME280;50528;48.514;14.394;2023-08-06T01:34:22;92999.08;;;14.18;91.79
64211;BME280;50528;48.514;14.394;2023-08-06T01:34:59;92997.36;;;14.19;91.80
64211;BME280;50528;48.514;14.394;2023-08-06T01:35:37;92995.96;;;14.17;91.82
64211;BME280;50528;48.514;14.394;2023-08-06T01:36:12;92992.39;;;14.29;91.35
64211;BME280;50528;48.514;14.394;2023-08-06T01:36:47;92997.16;;;14.24;91.35
64211;BME280;50528;48.514;14.394;2023-08-06T01:37:21;92996.35;;;14.26;91.02
64211;BME280;50528;48.514;14.394;2023-08-06T01:37:54;92999.00;;;14.21;91.27
64211;BME280;50528;48.514;14.394;2023-08-06T01:38:29;92994.84;;;14.21;91.29
64211;BME280;50528;48.514;14.394;2023-08-06T01:39:04;92997.94;;;14.22;91.14
64211;BME280;50528;48.514;14.394;2023-08-06T01:39:40;92995.88;;;14.19;91.43
64211;BME280;50528;48.514;14.394;2023-08-06T01:40:15;92998.20;;;14.19;91.44
64211;BME280;50528;48.514;14.394;2023-08-06T01:40:49;93000.51;;;14.24;91.38
64211;BME280;50528;48.514;14.394;2023-08-06T01:41:23;92998.88;;;14.23;91.20
64211;BME280;50528;48.514;14.394;2023-08-06T01:41:56;92998.59;;;14.20;91.31
64211;BME280;50528;48.514;14.394;2023-08-06T01:42:30;92994.98;;;14.18;91.40
64211;BME280;50528;48.514;14.394;2023-08-06T01:43:03;92998.52;;;14.19;91.61
64211;BME280;50528;48.514;14.394;2023-08-06T01:43:36;92996.48;;;14.21;91.66
64211;BME280;50528;48.514;14.394;2023-08-06T01:44:10;92994.50;;;14.22;91.75
64211;BME280;50528;48.514;14.394;2023-08-06T01:44:43;92994.02;;;14.23;91.79
64211;BME280;50528;48.514;14.394;2023-08-06T01:45:17;92990.77;;;14.24;91.80
64211;BME280;50528;48.514;14.394;2023-08-06T01:45:50;92990.95;;;14.25;91.90
64211;BME280;50528;48.514;14.394;2023-08-06T01:46:23;92995.21;;;14.27;91.81
64211;BME280;50528;48.514;14.394;2023-08-06T01:46:57;92993.50;;;14.31;91.62
64211;BME280;50528;48.514;14.394;2023-08-06T01:47:30;92993.39;;;14.29;91.39
64211;BME280;50528;48.514;14.394;2023-08-06T01:48:04;92997.73;;;14.28;91.53
64211;BME280;50528;48.514;14.394;2023-08-06T01:48:37;92994.08;;;14.29;91.66
64211;BME280;50528;48.514;14.394;2023-08-06T01:50:42;92995.29;;;14.26;91.74
64211;BME280;50528;48.514;14.394;2023-08-06T01:51:16;92995.66;;;14.23;91.72
64211;BME280;50528;48.514;14.394;2023-08-06T01:51:49;92993.27;;;14.24;91.69
64211;BME280;50528;48.514;14.394;2023-08-06T01:52:23;92995.73;;;14.25;91.66
64211;BME280;50528;48.514;14.394;2023-08-06T01:52:56;92995.02;;;14.26;91.68
64211;BME280;50528;48.514;14.394;2023-08-06T01:53:30;92996.15;;;14.28;91.60
64211;BME280;50528;48.514;14.394;2023-08-06T01:54:04;92994.41;;;14.28;91.64
64211;BME280;50528;48.514;14.394;2023-08-06T01:54:38;92997.09;;;14.28;91.74
64211;BME280;50528;48.514;14.394;2023-08-06T01:55:11;92995.83;;;14.29;91.75
64211;BME280;50528;48.514;14.394;2023-08-06T01:55:48;92997.94;;;14.31;91.70
64211;BME280;50528;48.514;14.394;2023-08-06T01:56:21;92999.40;;;14.30;91.60
64211;BME280;50528;48.514;14.394;2023-08-06T01:56:55;92992.84;;;14.30;91.67
64211;BME280;50528;48.514;14.394;2023-08-06T01:57:29;92993.23;;;14.29;91.78
64211;BME280;50528;48.514;14.394;2023-08-06T01:58:03;92989.36;;;14.29;91.70
64211;BME280;50528;48.514;14.394;2023-08-06T01:58:37;92992.00;;;14.30;91.84
64211;BME280;50528;48.514;14.394;2023-08-06T01:59:10;92993.42;;;14.30;91.73
64211;BME280;50528;48.514;14.394;2023-08-06T01:59:44;92991.20;;;14.31;91.83
64211;BME280;50528;48.514;14.394;2023-08-06T02:00:17;92986.40;;;14.31;91.87
64211;BME280;50528;48.514;14.394;2023-08-06T02:00:52;92986.47;;;14.31;91.90
64211;BME280;50528;48.514;14.394;2023-08-06T02:01:25;92983.91;;;14.33;91.90
64211;BME280;50528;48.514;14.394;2023-08-06T02:01:59;92983.00;;;14.33;91.87
64211;BME280;50528;48.514;14.394;2023-08-06T02:02:32;92986.33;;;14.34;91.98
64211;BME280;50528;48.514;14.394;2023-08-06T02:03:07;92982.87;;;14.35;91.97
64211;BME280;50528;48.514;14.394;2023-08-06T02:03:40;92983.34;;;14.36;91.90
64211;BME280;50528;48.514;14.394;2023-08-06T02:04:15;92983.56;;;14.34;92.00
64211;BME280;50528;48.514;14.394;2023-08-06T02:04:50;92983.23;;;14.35;92.06
64211;BME280;50528;48.514;14.394;2023-08-06T02:05:23;92980.90;;;14.36;92.09
64211;BME280;50528;48.514;14.394;2023-08-06T02:05:57;92979.38;;;14.37;92.04
64211;BME280;50528;48.514;14.394;2023-08-06T02:06:30;92980.79;;;14.38;91.99
64211;BME280;50528;48.514;14.394;2023-08-06T02:07:04;92977.08;;;14.39;92.00
64211;BME280;50528;48.514;14.394;2023-08-06T02:07:37;92974.32;;;14.42;91.84
64211;BME280;50528;48.514;14.394;2023-08-06T02:08:11;92974.42;;;14.45;91.33
64211;BME280;50528;48.514;14.394;2023-08-06T02:08:44;92974.89;;;14.40;91.59
64211;BME280;50528;48.514;14.394;2023-08-06T02:09:20;92976.44;;;14.38;91.73
64211;BME280;50528;48.514;14.394;2023-08-06T02:09:53;92976.07;;;14.39;91.80
64211;BME280;50528;48.514;14.394;2023-08-06T02:10:27;92975.05;;;14.37;91.86
64211;BME280;50528;48.514;14.394;2023-08-06T02:11:01;92976.82;;;14.38;91.83
64211;BME280;50528;48.514;14.394;2023-08-06T02:11:36;92977.09;;;14.38;91.80
64211;BME280;50528;48.514;14.394;2023-08-06T02:12:09;92977.91;;;14.39;91.83
64211;BME280;50528;48.514;14.394;2023-08-06T02:12:43;92976.20;;;14.40;91.65
64211;BME280;50528;48.514;14.394;2023-08-06T02:13:16;92975.07;;;14.38;91.47
64211;BME280;50528;48.514;14.394;2023-08-06T02:13:50;92975.58;;;14.35;91.63
64211;BME280;50528;48.514;14.394;2023-08-06T02:14:24;92974.38;;;14.34;91.65
64211;BME280;50528;48.514;14.394;2023-08-06T02:14:57;92976.19;;;14.32;91.72
64211;BME280;50528;48.514;14.394;2023-08-06T02:15:31;92973.93;;;14.31;91.73
64211;BME280;50528;48.514;14.394;2023-08-06T02:16:07;92973.91;;;14.33;91.82
64211;BME280;50528;48.514;14.394;2023-08-06T02:16:42;92973.44;;;14.32;91.76
64211;BME280;50528;48.514;14.394;2023-08-06T02:17:15;92970.55;;;14.32;91.78
64211;BME280;50528;48.514;14.394;2023-08-06T02:17:49;92971.10;;;14.33;91.87
64211;BME280;50528;48.514;14.394;2023-08-06T02:18:22;92972.85;;;14.33;91.82
64211;BME280;50528;48.514;14.394;2023-08-06T02:18:55;92973.98;;;14.36;91.84
64211;BME280;50528;48.514;14.394;2023-08-06T02:19:30;92964.48;;;14.34;91.66
64211;BME280;50528;48.514;14.394;2023-08-06T02:20:03;92969.30;;;14.35;91.92
64211;BME280;50528;48.514;14.394;2023-08-06T02:20:37;92966.59;;;14.35;91.78
64211;BME280;50528;48.514;14.394;2023-08-06T02:21:11;92965.98;;;14.33;91.53
64211;BME280;50528;48.514;14.394;2023-08-06T02:21:44;92968.09;;;14.31;91.79
64211;BME280;50528;48.514;14.394;2023-08-06T02:22:17;92967.73;;;14.30;91.81
64211;BME280;50528;48.514;14.394;2023-08-06T02:22:51;92964.98;;;14.30;92.05
64211;BME280;50528;48.514;14.394;2023-08-06T02:23:25;92964.67;;;14.32;91.93
64211;BME280;50528;48.514;14.394;2023-08-06T02:23:58;92963.16;;;14.42;91.74
64211;BME280;50528;48.514;14.394;2023-08-06T02:24:32;92961.54;;;14.38;91.47
64211;BME280;50528;48.514;14.394;2023-08-06T02:25:06;92964.86;;;14.33;91.54
64211;BME280;50528;48.514;14.394;2023-08-06T02:25:39;92963.61;;;14.30;91.67
64211;BME280;50528;48.514;14.394;2023-08-06T02:26:12;92964.04;;;14.30;91.95
64211;BME280;50528;48.514;14.394;2023-08-06T02:26:46;92965.63;;;14.30;91.91
64211;BME280;50528;48.514;14.394;2023-08-06T02:27:21;92965.48;;;14.29;92.04
64211;BME280;50528;48.514;14.394;2023-08-06T02:27:55;92963.15;;;14.29;92.06
64211;BME280;50528;48.514;14.394;2023-08-06T02:28:29;92961.21;;;14.31;92.14
64211;BME280;50528;48.514;14.394;2023-08-06T02:29:03;92964.11;;;14.31;92.11
64211;BME280;50528;48.514;14.394;2023-08-06T02:29:36;92959.96;;;14.38;91.85
64211;BME280;50528;48.514;14.394;2023-08-06T02:30:10;92960.36;;;14.34;91.81
64211;BME280;50528;48.514;14.394;2023-08-06T02:30:51;92963.20;;;14.31;91.92
64211;BME280;50528;48.514;14.394;2023-08-06T02:31:24;92963.98;;;14.30;92.11
64211;BME280;50528;48.514;14.394;2023-08-06T02:31:58;92964.04;;;14.31;92.09
64211;BME280;50528;48.514;14.394;2023-08-06T02:32:32;92962.50;;;14.28;92.19
64211;BME280;50528;48.514;14.394;2023-08-06T02:33:08;92964.89;;;14.35;92.11
64211;BME280;50528;48.514;14.394;2023-08-06T02:33:42;92964.65;;;14.42;91.52
64211;BME280;50528;48.514;14.394;2023-08-06T02:34:16;92962.34;;;14.37;91.48
64211;BME280;50528;48.514;14.394;2023-08-06T02:34:50;92962.42;;;14.33;91.74
64211;BME280;50528;48.514;14.394;2023-08-06T02:35:24;92961.14;;;14.37;91.81
64211;BME280;50528;48.514;14.394;2023-08-06T02:36:00;92962.60;;;14.33;91.70
64211;BME280;50528;48.514;14.394;2023-08-06T02:36:35;92961.56;;;14.29;92.07
64211;BME280;50528;48.514;14.394;2023-08-06T02:37:08;92961.52;;;14.28;92.15
64211;BME280;50528;48.514;14.394;2023-08-06T02:37:44;92961.95;;;14.28;92.06
64211;BME280;50528;48.514;14.394;2023-08-06T02:38:17;92958.41;;;14.27;92.21
64211;BME280;50528;48.514;14.394;2023-08-06T02:38:50;92961.42;;;14.28;92.31
64211;BME280;50528;48.514;14.394;2023-08-06T02:39:24;92961.89;;;14.28;92.22
64211;BME280;50528;48.514;14.394;2023-08-06T02:39:57;92961.25;;;14.29;92.35
64211;BME280;50528;48.514;14.394;2023-08-06T02:40:30;92963.20;;;14.30;92.33
64211;BME280;50528;48.514;14.394;2023-08-06T02:41:04;92962.30;;;14.30;92.26
64211;BME280;50528;48.514;14.394;2023-08-06T02:41:37;92959.80;;;14.30;92.32
64211;BME280;50528;48.514;14.394;2023-08-06T02:42:11;92959.28;;;14.31;92.39
64211;BME280;50528;48.514;14.394;2023-08-06T02:42:45;92957.98;;;14.31;92.24
64211;BME280;50528;48.514;14.394;2023-08-06T02:43:19;92952.60;;;14.31;92.26
64211;BME280;50528;48.514;14.394;2023-08-06T02:43:52;92956.18;;;14.31;92.36
64211;BME280;50528;48.514;14.394;2023-08-06T02:44:29;92955.37;;;14.32;92.45
64211;BME280;50528;48.514;14.394;2023-08-06T02:45:02;92957.48;;;14.32;92.45
64211;BME280;50528;48.514;14.394;2023-08-06T02:45:36;92951.49;;;14.30;92.48
64211;BME280;50528;48.514;14.394;2023-08-06T02:46:10;92948.99;;;14.43;92.00
64211;BME280;50528;48.514;14.394;2023-08-06T02:46:44;92950.07;;;14.38;91.95
64211;BME280;50528;48.514;14.394;2023-08-06T02:47:18;92950.10;;;14.36;92.06
64211;BME280;50528;48.514;14.394;2023-08-06T02:47:51;92948.64;;;14.34;92.17
64211;BME280;50528;48.514;14.394;2023-08-06T02:48:26;92951.07;;;14.33;92.16
64211;BME280;50528;48.514;14.394;2023-08-06T02:48:59;92947.50;;;14.31;92.14
64211;BME280;50528;48.514;14.394;2023-08-06T02:49:33;92946.85;;;14.30;92.35
64211;BME280;50528;48.514;14.394;2023-08-06T02:50:06;92947.01;;;14.31;92.45
64211;BME280;50528;48.514;14.394;2023-08-06T02:50:40;92947.88;;;14.31;92.61
64211;BME280;50528;48.514;14.394;2023-08-06T02:51:14;92947.64;;;14.32;92.47
64211;BME280;50528;48.514;14.394;2023-08-06T02:51:48;92948.27;;;14.33;92.41
64211;BME280;50528;48.514;14.394;2023-08-06T02:52:21;92945.05;;;14.33;92.25
64211;BME280;50528;48.514;14.394;2023-08-06T02:52:55;92946.89;;;14.33;92.39
64211;BME280;50528;48.514;14.394;2023-08-06T02:53:28;92946.92;;;14.32;92.34
64211;BME280;50528;48.514;14.394;2023-08-06T02:54:03;92946.45;;;14.34;92.24
64211;BME280;50528;48.514;14.394;2023-08-06T02:54:38;92950.33;;;14.33;92.19
64211;BME280;50528;48.514;14.394;2023-08-06T02:55:12;92942.98;;;14.45;91.67
64211;BME280;50528;48.514;14.394;2023-08-06T02:55:47;92946.14;;;14.34;91.84
64211;BME280;50528;48.514;14.394;2023-08-06T02:56:23;92947.08;;;14.29;92.05
64211;BME280;50528;48.514;14.394;2023-08-06T02:57:04;92943.61;;;14.25;92.40
64211;BME280;50528;48.514;14.394;2023-08-06T02:57:39;92946.23;;;14.23;92.61
64211;BME280;50528;48.514;14.394;2023-08-06T02:58:12;92946.91;;;14.24;92.72
64211;BME280;50528;48.514;14.394;2023-08-06T02:58:49;92945.84;;;14.25;92.77
64211;BME280;50528;48.514;14.394;2023-08-06T02:59:38;92944.86;;;14.23;92.90
64211;BME280;50528;48.514;14.394;2023-08-06T03:00:16;92946.96;;;14.23;93.04
64211;BME280;50528;48.514;14.394;2023-08-06T03:01:37;92942.67;;;14.24;93.02
64211;BME280;50528;48.514;14.394;2023-08-06T03:02:17;92940.23;;;14.25;93.18
64211;BME280;50528;48.514;14.394;2023-08-06T03:03:04;92940.37;;;14.25;93.27
64211;BME280;50528;48.514;14.394;2023-08-06T03:03:47;92940.08;;;14.27;93.28
64211;BME280;50528;48.514;14.394;2023-08-06T03:04:26;92937.89;;;14.28;93.18
64211;BME280;50528;48.514;14.394;2023-08-06T03:05:00;92940.38;;;14.31;93.33
64211;BME280;50528;48.514;14.394;2023-08-06T03:05:38;92939.86;;;14.31;93.04
64211;BME280;50528;48.514;14.394;2023-08-06T03:06:12;92935.88;;;14.35;93.02
64211;BME280;50528;48.514;14.394;2023-08-06T03:06:50;92939.27;;;14.31;92.74
64211;BME280;50528;48.514;14.394;2023-08-06T03:07:24;92938.66;;;14.30;92.88
64211;BME280;50528;48.514;14.394;2023-08-06T03:08:01;92937.46;;;14.29;92.87
64211;BME280;50528;48.514;14.394;2023-08-06T03:08:35;92936.58;;;14.28;92.83
64211;BME280;50528;48.514;14.394;2023-08-06T03:09:08;92938.41;;;14.28;93.02
64211;BME280;50528;48.514;14.394;2023-08-06T03:09:42;92938.77;;;14.30;93.08